Time;durP1;ratioP1;P1;durP2;ratioP2;P2;SDS_P1;SDS_P2;PMS_P1;PMS_P2;Temp;Humidity;BMP_temperature;BMP_pressure;BME280_temperature;BME280_humidity;BME280_pressure;Samples;Min_cycle;Max_cycle;Signal;HPM_P1;HPM_P2
2022/08/09 00:00:20;;;;;;;7.40;3.13;;;;;;;;;;5087585;28;20089;-66
2022/08/09 00:02:47;;;;;;;12.60;4.20;;;;;;;;;;5085029;28;20024;-66
2022/08/09 00:05:13;;;;;;;5.10;2.75;;;;;;;;;;5084121;28;20103;-66
2022/08/09 00:07:42;;;;;;;9.02;3.20;;;;;;;;;;5084148;28;20046;-66
2022/08/09 00:10:09;;;;;;;6.93;3.50;;;;;;;;;;5091557;28;20514;-66
2022/08/09 00:12:35;;;;;;;6.72;3.08;;;;;;;;;;5090614;28;20099;-66
2022/08/09 00:15:01;;;;;;;5.72;2.95;;;;;;;;;;5091260;28;20044;-67
2022/08/09 00:17:27;;;;;;;7.25;3.85;;;;;;;;;;5089675;28;20522;-66
2022/08/09 00:19:53;;;;;;;11.88;3.17;;;;;;;;;;5089421;28;20483;-66
2022/08/09 00:22:19;;;;;;;6.68;3.30;;;;;;;;;;5089965;28;20063;-67
2022/08/09 00:24:46;;;;;;;9.98;3.40;;;;;;;;;;5091034;28;20055;-67
2022/08/09 00:27:12;;;;;;;7.93;3.45;;;;;;;;;;5091568;28;20093;-67
2022/08/09 00:29:38;;;;;;;6.72;3.47;;;;;;;;;;5073076;28;20032;-67
2022/08/09 00:32:04;;;;;;;5.60;2.80;;;;;;;;;;5089176;28;20032;-66
2022/08/09 00:34:30;;;;;;;9.23;3.22;;;;;;;;;;5089009;28;20514;-67
2022/08/09 00:36:56;;;;;;;6.07;2.90;;;;;;;;;;5090240;28;20472;-67
2022/08/09 00:39:22;;;;;;;13.15;3.13;;;;;;;;;;5087629;28;20531;-67
2022/08/09 00:41:49;;;;;;;7.53;2.80;;;;;;;;;;5090915;28;20024;-67
2022/08/09 00:44:15;;;;;;;4.55;2.85;;;;;;;;;;5090347;28;20433;-67
2022/08/09 00:46:42;;;;;;;6.25;3.10;;;;;;;;;;5086292;28;20049;-66
2022/08/09 00:49:09;;;;;;;9.82;3.70;;;;;;;;;;5088346;28;20024;-66
2022/08/09 00:51:35;;;;;;;11.50;3.40;;;;;;;;;;5091171;28;20109;-66
2022/08/09 00:54:01;;;;;;;8.40;3.67;;;;;;;;;;5086143;28;20086;-66
2022/08/09 00:56:29;;;;;;;11.23;3.90;;;;;;;;;;5085971;28;20491;-66
2022/08/09 00:58:56;;;;;;;13.82;3.55;;;;;;;;;;5089171;28;20056;-67
2022/08/09 01:01:24;;;;;;;7.45;3.50;;;;;;;;;;5084723;28;20633;-67
2022/08/09 01:03:57;;;;;;;7.80;3.78;;;;;;;;;;5072644;28;20464;-67
2022/08/09 01:06:41;;;;;;;9.00;4.20;;;;;;;;;;5085736;28;20388;-67
2022/08/09 01:09:14;;;;;;;13.02;3.05;;;;;;;;;;5089361;28;20036;-67
2022/08/09 01:11:46;;;;;;;7.72;4.35;;;;;;;;;;5090632;28;20072;-66
2022/08/09 01:14:16;;;;;;;6.55;3.58;;;;;;;;;;5088632;28;20109;-66
2022/08/09 01:16:43;;;;;;;6.50;3.15;;;;;;;;;;5088490;28;20061;-66
2022/08/09 01:19:28;;;;;;;5.65;3.17;;;;;;;;;;5091165;28;20475;-68
2022/08/09 01:22:04;;;;;;;8.82;3.35;;;;;;;;;;5090366;28;20442;-67
2022/08/09 01:24:44;;;;;;;6.40;3.85;;;;;;;;;;5085720;28;20036;-66
2022/08/09 01:27:14;;;;;;;5.88;3.03;;;;;;;;;;5083707;28;20024;-66
2022/08/09 01:29:43;;;;;;;6.53;3.22;;;;;;;;;;5090163;28;20020;-66
2022/08/09 01:32:11;;;;;;;6.72;2.72;;;;;;;;;;5086247;28;20465;-66
2022/08/09 01:34:38;;;;;;;6.53;3.22;;;;;;;;;;5089210;28;20040;-66
2022/08/09 01:37:06;;;;;;;6.75;2.70;;;;;;;;;;5083769;28;20166;-66
2022/08/09 01:39:34;;;;;;;6.90;2.72;;;;;;;;;;5072760;28;20509;-66
2022/08/09 01:42:01;;;;;;;6.28;2.85;;;;;;;;;;5089233;28;20069;-67
2022/08/09 01:44:28;;;;;;;5.32;2.83;;;;;;;;;;5090307;28;20039;-67
2022/08/09 01:46:55;;;;;;;10.30;3.05;;;;;;;;;;5087746;28;20464;-67
2022/08/09 01:49:21;;;;;;;8.85;3.30;;;;;;;;;;5087222;28;20020;-68
2022/08/09 01:51:58;;;;;;;8.70;2.90;;;;;;;;;;5088283;28;20056;-67
2022/08/09 01:54:41;;;;;;;6.43;2.67;;;;;;;;;;5076598;28;20039;-66
2022/08/09 01:57:07;;;;;;;;;;;;;;;;;;5090186;28;20024;-66
2022/08/09 01:59:34;;;;;;;5.97;3.30;;;;;;;;;;5084883;28;19915;-66
2022/08/09 02:02:01;;;;;;;6.10;3.20;;;;;;;;;;5089573;28;20028;-66
2022/08/09 02:04:29;;;;;;;7.00;3.42;;;;;;;;;;5084039;28;20060;-67
2022/08/09 02:07:07;;;;;;;10.85;3.42;;;;;;;;;;5084229;28;20047;-66
2022/08/09 02:09:34;;;;;;;5.97;2.90;;;;;;;;;;5087407;28;20381;-66
2022/08/09 02:12:02;;;;;;;5.93;3.55;;;;;;;;;;5090953;28;20016;-67
2022/08/09 02:14:29;;;;;;;4.95;2.90;;;;;;;;;;5084792;28;20050;-67
2022/08/09 02:16:57;;;;;;;8.35;3.10;;;;;;;;;;5088789;28;20039;-66
2022/08/09 02:19:23;;;;;;;6.55;2.92;;;;;;;;;;5090130;28;20036;-67
2022/08/09 02:21:51;;;;;;;6.38;3.05;;;;;;;;;;5088474;28;20064;-66
2022/08/09 02:24:23;;;;;;;7.88;3.00;;;;;;;;;;5088900;28;20498;-66
2022/08/09 02:26:51;;;;;;;7.05;3.25;;;;;;;;;;5090495;28;20027;-67
2022/08/09 02:29:23;;;;;;;6.07;2.90;;;;;;;;;;5088552;28;20781;-66
2022/08/09 02:31:50;;;;;;;4.70;3.03;;;;;;;;;;5085358;28;20112;-66
2022/08/09 02:34:18;;;;;;;9.45;3.08;;;;;;;;;;5086414;28;20471;-66
2022/08/09 02:36:46;;;;;;;4.40;2.70;;;;;;;;;;5083156;28;20039;-66
2022/08/09 02:39:16;;;;;;;5.90;3.15;;;;;;;;;;5088016;28;20106;-66
2022/08/09 02:41:49;;;;;;;4.00;2.95;;;;;;;;;;5090786;28;20040;-66
2022/08/09 02:44:16;;;;;;;5.95;3.10;;;;;;;;;;5085610;28;20081;-66
2022/08/09 02:46:43;;;;;;;4.82;3.72;;;;;;;;;;5071207;28;20020;-67
2022/08/09 02:49:12;;;;;;;5.78;2.90;;;;;;;;;;5068869;28;21236;-68
2022/08/09 02:51:38;;;;;;;4.40;3.28;;;;;;;;;;5072896;28;20097;-68
2022/08/09 02:54:05;;;;;;;5.53;3.67;;;;;;;;;;5085003;28;20032;-68
2022/08/09 02:56:32;;;;;;;5.35;3.20;;;;;;;;;;5089378;28;20080;-68
2022/08/09 02:58:59;;;;;;;4.65;3.35;;;;;;;;;;5067592;28;20544;-67
2022/08/09 03:01:26;;;;;;;5.70;2.90;;;;;;;;;;5085339;28;20028;-67
2022/08/09 03:03:53;;;;;;;4.18;2.75;;;;;;;;;;5089947;28;20476;-67
2022/08/09 03:06:21;;;;;;;5.55;2.72;;;;;;;;;;5071659;28;20024;-67
2022/08/09 03:08:47;;;;;;;4.93;2.70;;;;;;;;;;5089068;28;20017;-67
2022/08/09 03:11:18;;;;;;;6.20;3.20;;;;;;;;;;5066783;28;20028;-67
2022/08/09 03:13:45;;;;;;;3.33;2.75;;;;;;;;;;5085552;28;20101;-66
2022/08/09 03:16:11;;;;;;;4.10;2.92;;;;;;;;;;5088344;28;20404;-66
2022/08/09 03:18:38;;;;;;;5.40;3.10;;;;;;;;;;5085235;28;20392;-66
2022/08/09 03:21:05;;;;;;;5.53;2.88;;;;;;;;;;5086128;28;20023;-66
2022/08/09 03:23:31;;;;;;;4.82;3.10;;;;;;;;;;5087818;28;20016;-67
2022/08/09 03:25:58;;;;;;;5.90;3.03;;;;;;;;;;5084904;28;20036;-68
2022/08/09 03:28:25;;;;;;;5.60;3.03;;;;;;;;;;5088274;28;20023;-66
2022/08/09 03:30:52;;;;;;;6.72;3.25;;;;;;;;;;5082236;28;20086;-66
2022/08/09 03:33:19;;;;;;;5.35;3.30;;;;;;;;;;5085451;28;20046;-66
2022/08/09 03:35:46;;;;;;;5.68;2.70;;;;;;;;;;5086815;28;20387;-66
2022/08/09 03:38:12;;;;;;;7.43;2.95;;;;;;;;;;5084056;28;20055;-66
2022/08/09 03:40:38;;;;;;;7.07;2.67;;;;;;;;;;5088861;28;20053;-66
2022/08/09 03:43:04;;;;;;;4.25;2.53;;;;;;;;;;5090203;28;20085;-66
2022/08/09 03:45:30;;;;;;;5.28;2.95;;;;;;;;;;5089318;28;20027;-66
2022/08/09 03:47:56;;;;;;;4.80;3.30;;;;;;;;;;5087703;28;20012;-66
2022/08/09 03:50:26;;;;;;;4.72;3.03;;;;;;;;;;5093873;28;20028;-66
2022/08/09 03:52:52;;;;;;;6.95;3.15;;;;;;;;;;5073494;28;20403;-66
2022/08/09 03:55:19;;;;;;;6.97;3.28;;;;;;;;;;5089592;28;20191;-66
2022/08/09 03:57:47;;;;;;;6.68;2.90;;;;;;;;;;5091477;28;20030;-67
2022/08/09 04:00:13;;;;;;;5.32;2.90;;;;;;;;;;5089856;28;20036;-67
2022/08/09 04:02:42;;;;;;;6.40;3.20;;;;;;;;;;5083146;28;20031;-67
2022/08/09 04:05:09;;;;;;;5.50;2.90;;;;;;;;;;5092558;28;20030;-67
2022/08/09 04:07:36;;;;;;;4.93;2.45;;;;;;;;;;5089476;28;20050;-67
2022/08/09 04:10:03;;;;;;;7.38;3.75;;;;;;;;;;5071738;28;20487;-67
2022/08/09 04:12:38;;;;;;;5.18;2.90;;;;;;;;;;5092036;28;20039;-67
2022/08/09 04:15:04;;;;;;;7.40;3.03;;;;;;;;;;5092843;28;20044;-68
2022/08/09 04:17:30;;;;;;;5.47;2.92;;;;;;;;;;5089658;28;20050;-66
2022/08/09 04:19:57;;;;;;;4.50;3.10;;;;;;;;;;5090425;28;20042;-66
2022/08/09 04:22:23;;;;;;;4.00;2.85;;;;;;;;;;5088691;28;20028;-66
2022/08/09 04:24:49;;;;;;;8.25;3.25;;;;;;;;;;5090249;28;20035;-66
2022/08/09 04:27:16;;;;;;;4.88;3.47;;;;;;;;;;5093970;28;20024;-66
2022/08/09 04:29:42;;;;;;;5.05;2.65;;;;;;;;;;5093211;28;20115;-67
2022/08/09 04:32:08;;;;;;;3.97;2.65;;;;;;;;;;5089581;28;20024;-67
2022/08/09 04:34:34;;;;;;;3.70;2.70;;;;;;;;;;5089401;28;20038;-67
2022/08/09 04:37:01;;;;;;;4.28;2.90;;;;;;;;;;5086450;28;20028;-67
2022/08/09 04:39:27;;;;;;;4.50;2.80;;;;;;;;;;5091800;28;20043;-66
2022/08/09 04:41:53;;;;;;;7.70;2.83;;;;;;;;;;5071782;28;20040;-67
2022/08/09 04:44:19;;;;;;;6.70;3.10;;;;;;;;;;5089411;28;20024;-67
2022/08/09 04:46:45;;;;;;;4.68;2.58;;;;;;;;;;5073755;28;20031;-66
2022/08/09 04:49:11;;;;;;;6.70;2.80;;;;;;;;;;5086014;28;20024;-66
2022/08/09 04:51:37;;;;;;;8.18;3.00;;;;;;;;;;5078964;28;20106;-66
2022/08/09 04:54:03;;;;;;;4.50;3.10;;;;;;;;;;5088216;28;20032;-66
2022/08/09 04:56:30;;;;;;;6.65;2.95;;;;;;;;;;5089584;28;20024;-66
2022/08/09 04:58:56;;;;;;;5.40;2.85;;;;;;;;;;5088019;28;20038;-66
2022/08/09 05:01:22;;;;;;;3.28;2.75;;;;;;;;;;5070383;28;20019;-66
2022/08/09 05:03:48;;;;;;;5.60;3.00;;;;;;;;;;5071001;28;20031;-67
2022/08/09 05:06:15;;;;;;;7.70;3.35;;;;;;;;;;5087572;28;20103;-66
2022/08/09 05:08:41;;;;;;;6.20;3.30;;;;;;;;;;5089758;28;20174;-67
2022/08/09 05:11:07;;;;;;;13.10;4.93;;;;;;;;;;5090011;28;20028;-67
2022/08/09 05:13:33;;;;;;;6.72;3.20;;;;;;;;;;5083722;28;20028;-67
2022/08/09 05:15:59;;;;;;;6.75;3.00;;;;;;;;;;5091751;28;20123;-67
2022/08/09 05:18:28;;;;;;;5.28;3.00;;;;;;;;;;5084973;28;20024;-67
2022/08/09 05:20:55;;;;;;;4.15;2.97;;;;;;;;;;5094046;28;20028;-66
2022/08/09 05:23:22;;;;;;;5.68;2.90;;;;;;;;;;5085928;28;20024;-67
2022/08/09 05:25:48;;;;;;;9.40;3.35;;;;;;;;;;5088803;28;20059;-66
2022/08/09 05:28:14;;;;;;;8.75;3.40;;;;;;;;;;5086715;28;20114;-66
2022/08/09 05:30:40;;;;;;;5.82;3.00;;;;;;;;;;5089984;28;20020;-67
2022/08/09 05:33:07;;;;;;;10.57;3.50;;;;;;;;;;5093055;28;20373;-67
2022/08/09 05:35:33;;;;;;;6.70;3.00;;;;;;;;;;5090352;28;20035;-66
2022/08/09 05:37:59;;;;;;;7.03;3.22;;;;;;;;;;5090244;28;20085;-66
2022/08/09 05:40:27;;;;;;;5.35;2.95;;;;;;;;;;5087396;28;20028;-66
2022/08/09 05:42:54;;;;;;;7.60;3.33;;;;;;;;;;5083308;28;20113;-66
2022/08/09 05:45:20;;;;;;;6.80;3.15;;;;;;;;;;5090164;28;20039;-67
2022/08/09 05:47:46;;;;;;;9.18;3.92;;;;;;;;;;5094057;28;20028;-67
2022/08/09 05:50:12;;;;;;;8.32;3.42;;;;;;;;;;5090810;28;20028;-67
2022/08/09 05:52:39;;;;;;;9.30;3.85;;;;;;;;;;5087090;28;20024;-67
2022/08/09 05:55:06;;;;;;;7.90;4.13;;;;;;;;;;5089421;28;20032;-67
2022/08/09 05:57:33;;;;;;;6.55;3.38;;;;;;;;;;5067196;28;20465;-66
2022/08/09 05:59:59;;;;;;;8.07;3.90;;;;;;;;;;5087192;28;20526;-67
2022/08/09 06:02:26;;;;;;;6.60;3.58;;;;;;;;;;5085724;28;20024;-66
2022/08/09 06:04:52;;;;;;;7.82;3.22;;;;;;;;;;5084785;28;20117;-67
2022/08/09 06:07:18;;;;;;;9.63;3.63;;;;;;;;;;5078491;28;20036;-66
2022/08/09 06:09:44;;;;;;;5.75;3.92;;;;;;;;;;5078978;28;20043;-65
2022/08/09 06:12:10;;;;;;;7.60;3.25;;;;;;;;;;5079987;28;20045;-66
2022/08/09 06:14:37;;;;;;;7.40;5.10;;;;;;;;;;5051797;28;20126;-65
2022/08/09 06:17:04;;;;;;;8.75;3.75;;;;;;;;;;5081803;28;20035;-65
2022/08/09 06:19:30;;;;;;;8.77;3.75;;;;;;;;;;5083516;28;20476;-65
2022/08/09 06:21:56;;;;;;;4.43;3.00;;;;;;;;;;5065636;28;20044;-65
2022/08/09 06:24:22;;;;;;;6.20;3.45;;;;;;;;;;5064022;28;20032;-66
2022/08/09 06:26:48;;;;;;;9.43;4.25;;;;;;;;;;5081006;28;20067;-67
2022/08/09 06:29:14;;;;;;;9.60;4.38;;;;;;;;;;5079849;28;20036;-66
2022/08/09 06:31:40;;;;;;;12.40;4.93;;;;;;;;;;5087553;28;20024;-66
2022/08/09 06:34:07;;;;;;;6.68;3.92;;;;;;;;;;5080712;28;20036;-66
2022/08/09 06:36:33;;;;;;;7.78;3.60;;;;;;;;;;5081074;28;20031;-66
2022/08/09 06:38:59;;;;;;;12.95;3.67;;;;;;;;;;5081047;28;20098;-66
2022/08/09 06:41:25;;;;;;;10.77;3.85;;;;;;;;;;5082178;28;20024;-66
2022/08/09 06:43:51;;;;;;;9.75;4.28;;;;;;;;;;5060872;28;20028;-66
2022/08/09 06:46:17;;;;;;;12.80;4.00;;;;;;;;;;5077584;28;20111;-66
2022/08/09 06:48:44;;;;;;;7.85;4.00;;;;;;;;;;5079976;28;20085;-66
2022/08/09 06:51:10;;;;;;;7.10;4.10;;;;;;;;;;5080436;28;20055;-66
2022/08/09 06:53:37;;;;;;;8.27;4.20;;;;;;;;;;5082580;28;21078;-66
2022/08/09 06:56:03;;;;;;;10.20;4.68;;;;;;;;;;5084952;28;20392;-66
2022/08/09 06:58:29;;;;;;;11.32;6.32;;;;;;;;;;5083392;28;20445;-66
2022/08/09 07:00:55;;;;;;;15.55;6.63;;;;;;;;;;5085707;28;20032;-66
2022/08/09 07:03:22;;;;;;;12.43;6.15;;;;;;;;;;5083066;28;20067;-66
2022/08/09 07:05:49;;;;;;;16.55;7.13;;;;;;;;;;5084079;28;20028;-67
2022/08/09 07:08:15;;;;;;;12.70;6.28;;;;;;;;;;5066225;28;20112;-67
2022/08/09 07:10:41;;;;;;;12.65;7.30;;;;;;;;;;5068399;28;20531;-67
2022/08/09 07:13:07;;;;;;;10.73;5.68;;;;;;;;;;5086140;28;20077;-67
2022/08/09 07:15:34;;;;;;;12.38;5.63;;;;;;;;;;5083192;28;20059;-67
2022/08/09 07:18:00;;;;;;;20.88;6.30;;;;;;;;;;5088661;28;20051;-67
2022/08/09 07:20:26;;;;;;;11.32;5.00;;;;;;;;;;5088104;28;20052;-67
2022/08/09 07:22:52;;;;;;;17.73;4.75;;;;;;;;;;5083787;28;20117;-67
2022/08/09 07:25:19;;;;;;;18.65;4.90;;;;;;;;;;5082707;28;20404;-67
2022/08/09 07:27:45;;;;;;;9.77;3.97;;;;;;;;;;5086623;28;20024;-67
2022/08/09 07:30:12;;;;;;;13.35;4.80;;;;;;;;;;5086654;28;20019;-67
2022/08/09 07:32:39;;;;;;;6.63;3.53;;;;;;;;;;5089093;28;20072;-67
2022/08/09 07:35:07;;;;;;;11.82;4.10;;;;;;;;;;5086633;28;20058;-67
2022/08/09 07:37:33;;;;;;;11.05;3.65;;;;;;;;;;5085341;28;20076;-67
2022/08/09 07:39:59;;;;;;;9.60;2.65;;;;;;;;;;5084584;28;20361;-67
2022/08/09 07:42:25;;;;;;;8.07;3.25;;;;;;;;;;5083859;28;20426;-67
2022/08/09 07:44:51;;;;;;;8.20;2.85;;;;;;;;;;5087311;28;20032;-67
2022/08/09 07:47:17;;;;;;;8.57;3.05;;;;;;;;;;5089752;28;20020;-67
2022/08/09 07:49:44;;;;;;;10.90;3.10;;;;;;;;;;5085676;28;20017;-67
2022/08/09 07:52:10;;;;;;;6.75;3.13;;;;;;;;;;5066522;28;20399;-67
2022/08/09 07:54:37;;;;;;;7.72;3.55;;;;;;;;;;5082295;28;20024;-66
2022/08/09 07:57:03;;;;;;;6.30;2.55;;;;;;;;;;5085558;28;20028;-67
2022/08/09 07:59:29;;;;;;;8.15;2.42;;;;;;;;;;5080115;28;20016;-67
2022/08/09 08:01:56;;;;;;;9.88;2.50;;;;;;;;;;5076715;28;20039;-66
2022/08/09 08:04:22;;;;;;;9.02;2.78;;;;;;;;;;5079891;28;20047;-66
2022/08/09 08:06:48;;;;;;;8.65;2.60;;;;;;;;;;5081569;28;20117;-66
2022/08/09 08:09:16;;;;;;;6.22;2.50;;;;;;;;;;5062639;28;20411;-66
2022/08/09 08:11:42;;;;;;;13.55;2.67;;;;;;;;;;5080369;28;20028;-67
2022/08/09 08:14:09;;;;;;;17.75;2.88;;;;;;;;;;5077335;28;20119;-67
2022/08/09 08:16:35;;;;;;;8.35;2.55;;;;;;;;;;5079423;28;20484;-67
2022/08/09 08:19:01;;;;;;;7.78;2.40;;;;;;;;;;5085120;28;20027;-67
2022/08/09 08:21:27;;;;;;;14.88;2.83;;;;;;;;;;5065329;28;20024;-67
2022/08/09 08:23:54;;;;;;;5.90;1.92;;;;;;;;;;5084177;28;20028;-67
2022/08/09 08:26:20;;;;;;;10.65;2.38;;;;;;;;;;5084125;28;20035;-67
2022/08/09 08:28:46;;;;;;;8.50;2.22;;;;;;;;;;5088511;28;20028;-67
2022/08/09 08:31:12;;;;;;;8.27;2.17;;;;;;;;;;5085861;28;20020;-67
2022/08/09 08:33:38;;;;;;;9.98;2.33;;;;;;;;;;5083886;28;20028;-67
2022/08/09 08:36:04;;;;;;;7.97;2.30;;;;;;;;;;5083558;28;20052;-67
2022/08/09 08:38:31;;;;;;;8.38;2.50;;;;;;;;;;5095140;28;20110;-67
2022/08/09 08:40:57;;;;;;;9.40;2.65;;;;;;;;;;5090446;28;20024;-67
2022/08/09 08:43:27;;;;;;;7.72;2.47;;;;;;;;;;5082840;28;20028;-67
2022/08/09 08:45:56;;;;;;;5.57;2.47;;;;;;;;;;5087976;28;20039;-67
2022/08/09 08:48:23;;;;;;;9.18;2.30;;;;;;;;;;5096873;28;20012;-68
2022/08/09 08:50:50;;;;;;;12.13;2.10;;;;;;;;;;5095669;28;20039;-68
2022/08/09 08:53:17;;;;;;;11.70;2.47;;;;;;;;;;5089397;28;20028;-68
2022/08/09 08:55:43;;;;;;;9.07;2.50;;;;;;;;;;5084074;28;20039;-68
2022/08/09 08:58:10;;;;;;;10.27;2.60;;;;;;;;;;5080975;28;20392;-68
2022/08/09 09:00:36;;;;;;;8.35;2.03;;;;;;;;;;5085705;28;20507;-67
2022/08/09 09:03:04;;;;;;;6.38;2.13;;;;;;;;;;5080597;28;20036;-67
2022/08/09 09:05:31;;;;;;;11.93;2.47;;;;;;;;;;5080441;28;20035;-67
2022/08/09 09:07:58;;;;;;;10.93;2.70;;;;;;;;;;5081063;28;20032;-68
2022/08/09 09:10:26;;;;;;;8.57;2.10;;;;;;;;;;5080009;28;20062;-68
2022/08/09 09:12:53;;;;;;;6.13;2.10;;;;;;;;;;5087434;28;20431;-68
2022/08/09 09:15:19;;;;;;;9.57;2.25;;;;;;;;;;5085697;28;20044;-67
2022/08/09 09:17:46;;;;;;;9.18;2.40;;;;;;;;;;5087714;28;20052;-68
2022/08/09 09:20:13;;;;;;;6.90;2.40;;;;;;;;;;5089579;28;20036;-68
2022/08/09 09:22:56;;;;;;;5.82;1.98;;;;;;;;;;5072458;28;20495;-68
2022/08/09 09:25:34;;;;;;;9.93;2.60;;;;;;;;;;5088285;28;20031;-67
2022/08/09 09:28:00;;;;;;;4.88;2.50;;;;;;;;;;5091000;28;20368;-67
2022/08/09 09:30:26;;;;;;;10.00;2.17;;;;;;;;;;5086956;28;20148;-68
2022/08/09 09:33:01;;;;;;;8.80;2.40;;;;;;;;;;5096219;28;20099;-68
2022/08/09 09:35:28;;;;;;;8.90;2.60;;;;;;;;;;5092665;28;20823;-68
2022/08/09 09:37:54;;;;;;;12.60;2.30;;;;;;;;;;5090687;28;20043;-68
2022/08/09 09:40:20;;;;;;;9.52;2.25;;;;;;;;;;5092327;28;20021;-68
2022/08/09 09:42:56;;;;;;;8.23;2.72;;;;;;;;;;5074710;28;20372;-68
2022/08/09 09:45:22;;;;;;;5.50;2.80;;;;;;;;;;5073695;28;20049;-67
2022/08/09 09:47:49;;;;;;;12.15;2.40;;;;;;;;;;5087853;28;20502;-68
2022/08/09 09:50:21;;;;;;;6.72;2.00;;;;;;;;;;5092159;28;20491;-68
2022/08/09 09:52:50;;;;;;;5.60;2.10;;;;;;;;;;5093385;28;20023;-68
2022/08/09 09:55:16;;;;;;;11.13;2.72;;;;;;;;;;5083531;28;20071;-67
2022/08/09 09:57:56;;;;;;;11.68;3.50;;;;;;;;;;5081163;28;20032;-67
2022/08/09 10:00:23;;;;;;;16.20;3.13;;;;;;;;;;5077213;28;20024;-67
2022/08/09 10:02:49;;;;;;;13.98;2.78;;;;;;;;;;5065753;28;20412;-67
2022/08/09 10:05:15;;;;;;;7.22;2.88;;;;;;;;;;5086130;28;20379;-67
2022/08/09 10:07:41;;;;;;;5.10;2.60;;;;;;;;;;5086181;28;20024;-66
2022/08/09 10:10:07;;;;;;;11.95;3.22;;;;;;;;;;5089307;28;20468;-67
2022/08/09 10:12:35;;;;;;;18.42;3.35;;;;;;;;;;5069300;28;21696;-66
2022/08/09 10:15:05;;;;;;;11.23;3.63;;;;;;;;;;5088646;28;20054;-67
2022/08/09 10:17:33;;;;;;;13.90;2.85;;;;;;;;;;5092394;28;20089;-68
2022/08/09 10:20:00;;;;;;;19.55;3.80;;;;;;;;;;5093338;28;20418;-68
2022/08/09 10:22:33;;;;;;;14.57;3.28;;;;;;;;;;5088426;28;20054;-68
2022/08/09 10:25:00;;;;;;;7.63;3.10;;;;;;;;;;5089670;28;20032;-68
2022/08/09 10:27:26;;;;;;;9.88;3.30;;;;;;;;;;5091200;28;20095;-68
2022/08/09 10:29:52;;;;;;;8.52;3.10;;;;;;;;;;5090433;28;20100;-67
2022/08/09 10:32:19;;;;;;;15.77;3.83;;;;;;;;;;5092071;28;20032;-67
2022/08/09 10:34:45;;;;;;;13.13;5.25;;;;;;;;;;5088626;28;20148;-68
2022/08/09 10:37:12;;;;;;;13.32;4.00;;;;;;;;;;5091155;28;20023;-67
2022/08/09 10:39:39;;;;;;;8.95;3.60;;;;;;;;;;5090617;28;20581;-68
2022/08/09 10:42:06;;;;;;;16.77;4.10;;;;;;;;;;5095082;28;20078;-68
2022/08/09 10:44:32;;;;;;;7.38;3.42;;;;;;;;;;5095748;28;20031;-67
2022/08/09 10:47:17;;;;;;;14.95;4.10;;;;;;;;;;5071920;28;20047;-68
2022/08/09 10:49:47;;;;;;;12.07;4.13;;;;;;;;;;5090255;28;20073;-68
2022/08/09 10:52:13;;;;;;;12.77;4.25;;;;;;;;;;5087365;28;20027;-68
2022/08/09 10:54:39;;;;;;;13.27;4.32;;;;;;;;;;5090969;28;20020;-68
2022/08/09 10:57:10;;;;;;;10.93;4.50;;;;;;;;;;5089495;28;20111;-68
2022/08/09 10:59:37;;;;;;;11.10;4.30;;;;;;;;;;5081069;28;20051;-67
2022/08/09 11:02:08;;;;;;;12.48;4.05;;;;;;;;;;5083686;28;20079;-68
2022/08/09 11:04:35;;;;;;;14.10;4.97;;;;;;;;;;5087655;28;20056;-68
2022/08/09 11:07:01;;;;;;;9.98;3.67;;;;;;;;;;5090699;28;20038;-67
2022/08/09 11:09:42;;;;;;;10.90;3.78;;;;;;;;;;5089654;28;20487;-68
2022/08/09 11:12:14;;;;;;;11.02;4.28;;;;;;;;;;5088503;28;20062;-68
2022/08/09 11:14:46;;;;;;;13.60;4.75;;;;;;;;;;5081550;28;20044;-68
2022/08/09 11:17:14;;;;;;;9.95;4.00;;;;;;;;;;5085799;28;20031;-67
2022/08/09 11:20:00;;;;;;;9.02;3.85;;;;;;;;;;5089506;28;20093;-68
2022/08/09 11:22:50;;;;;;;12.13;3.78;;;;;;;;;;5087822;28;20028;-68
2022/08/09 11:25:16;;;;;;;13.98;4.95;;;;;;;;;;5071351;28;20055;-67
2022/08/09 11:27:43;;;;;;;11.88;4.50;;;;;;;;;;5086374;28;20492;-68
2022/08/09 11:30:10;;;;;;;12.18;4.35;;;;;;;;;;5085303;28;20507;-68
2022/08/09 11:32:39;;;;;;;9.65;4.13;;;;;;;;;;5078287;28;20028;-67
2022/08/09 11:35:15;;;;;;;13.23;4.80;;;;;;;;;;5087896;28;20062;-67
2022/08/09 11:37:41;;;;;;;11.32;4.88;;;;;;;;;;5080761;28;20031;-67
2022/08/09 11:40:09;;;;;;;9.60;3.85;;;;;;;;;;5067963;28;22036;-68
2022/08/09 11:42:39;;;;;;;10.38;3.72;;;;;;;;;;5080828;28;20226;-68
2022/08/09 11:45:18;;;;;;;14.20;4.45;;;;;;;;;;5085000;28;20032;-68
2022/08/09 11:47:45;;;;;;;9.10;3.38;;;;;;;;;;5065964;28;20028;-68
2022/08/09 11:50:11;;;;;;;14.77;3.90;;;;;;;;;;5077186;28;20024;-68
2022/08/09 11:52:56;;;;;;;12.85;3.50;;;;;;;;;;5077784;28;20472;-68
2022/08/09 11:55:36;;;;;;;14.60;4.00;;;;;;;;;;5073024;28;20024;-67
2022/08/09 11:58:04;;;;;;;9.95;3.58;;;;;;;;;;5075083;28;20329;-67
2022/08/09 12:00:31;;;;;;;9.30;3.30;;;;;;;;;;5079415;28;20138;-68
2022/08/09 12:02:59;;;;;;;11.32;3.60;;;;;;;;;;5082561;28;20030;-68
2022/08/09 12:05:35;;;;;;;10.85;3.78;;;;;;;;;;5125996;22;20459;-68
2022/08/09 12:08:07;;;;;;;11.73;4.15;;;;;;;;;;5043454;28;20025;-68
2022/08/09 12:10:34;;;;;;;9.27;3.20;;;;;;;;;;5041468;28;20519;-68
2022/08/09 12:13:00;;;;;;;8.10;2.95;;;;;;;;;;5041313;28;20044;-68
2022/08/09 12:15:30;;;;;;;12.57;3.60;;;;;;;;;;5048806;28;20543;-68
2022/08/09 12:18:02;;;;;;;12.07;4.13;;;;;;;;;;5044066;28;20068;-68
2022/08/09 12:20:29;;;;;;;12.68;3.58;;;;;;;;;;5047610;28;20031;-68
2022/08/09 12:22:57;;;;;;;9.07;3.85;;;;;;;;;;5047588;28;20028;-68
2022/08/09 12:25:23;;;;;;;7.80;2.90;;;;;;;;;;5046795;28;20025;-68
2022/08/09 12:28:07;;;;;;;10.95;3.80;;;;;;;;;;5048366;28;20370;-68
2022/08/09 12:30:33;;;;;;;12.30;3.63;;;;;;;;;;5047128;28;20029;-68
2022/08/09 12:33:03;;;;;;;11.23;3.80;;;;;;;;;;5043983;28;20033;-69
2022/08/09 12:35:30;;;;;;;7.80;2.92;;;;;;;;;;5041924;28;21364;-68
2022/08/09 12:37:56;;;;;;;9.68;3.92;;;;;;;;;;5040049;28;20025;-68
2022/08/09 12:40:26;;;;;;;8.95;2.90;;;;;;;;;;5043912;28;20024;-68
2022/08/09 12:42:53;;;;;;;9.32;3.42;;;;;;;;;;5040002;28;20132;-68
2022/08/09 12:45:19;;;;;;;10.20;4.05;;;;;;;;;;5039492;28;20029;-68
2022/08/09 12:47:46;;;;;;;7.50;3.22;;;;;;;;;;5040237;28;20439;-68
2022/08/09 12:50:19;;;;;;;7.10;3.35;;;;;;;;;;5041678;28;20033;-68
2022/08/09 12:52:48;;;;;;;7.55;3.13;;;;;;;;;;5039640;28;20060;-68
2022/08/09 12:55:27;;;;;;;9.38;2.92;;;;;;;;;;5041172;28;20060;-69
2022/08/09 12:57:54;;;;;;;8.98;3.15;;;;;;;;;;5039073;28;20025;-68
2022/08/09 13:00:22;;;;;;;10.30;3.40;;;;;;;;;;5041185;28;20033;-68
2022/08/09 13:02:53;;;;;;;8.27;3.55;;;;;;;;;;5039585;28;20047;-69
2022/08/09 13:05:20;;;;;;;15.93;3.72;;;;;;;;;;5040408;28;20065;-68
2022/08/09 13:08:04;;;;;;;12.05;3.90;;;;;;;;;;5039632;28;20024;-68
2022/08/09 13:10:31;;;;;;;12.85;3.13;;;;;;;;;;5047038;28;20026;-69
2022/08/09 13:12:59;;;;;;;9.63;4.00;;;;;;;;;;5047845;28;20116;-68
2022/08/09 13:15:25;;;;;;;9.35;2.72;;;;;;;;;;5045471;28;20037;-66
2022/08/09 13:17:51;;;;;;;8.30;3.30;;;;;;;;;;5049640;28;20037;-66
2022/08/09 13:20:30;;;;;;;10.07;3.40;;;;;;;;;;5044897;28;20107;-66
2022/08/09 13:22:59;;;;;;;13.52;3.55;;;;;;;;;;5043588;28;20384;-65
2022/08/09 13:25:26;;;;;;;9.20;3.58;;;;;;;;;;5044562;28;20033;-65
2022/08/09 13:27:53;;;;;;;9.32;3.55;;;;;;;;;;5039295;28;20485;-65
2022/08/09 13:30:19;;;;;;;15.10;3.55;;;;;;;;;;5050138;28;20033;-65
2022/08/09 13:32:46;;;;;;;10.45;3.50;;;;;;;;;;5042843;28;20051;-65
2022/08/09 13:35:14;;;;;;;13.02;3.63;;;;;;;;;;5042133;28;20044;-66
2022/08/09 13:37:41;;;;;;;12.85;3.40;;;;;;;;;;5042684;28;20025;-66
2022/08/09 13:40:08;;;;;;;11.45;3.50;;;;;;;;;;5030528;28;20752;-67
2022/08/09 13:42:36;;;;;;;12.15;2.63;;;;;;;;;;5043485;28;20082;-66
2022/08/09 13:45:04;;;;;;;7.75;2.55;;;;;;;;;;5044834;28;20025;-67
2022/08/09 13:47:31;;;;;;;11.55;3.30;;;;;;;;;;5041269;28;20119;-65
2022/08/09 13:50:07;;;;;;;10.85;3.08;;;;;;;;;;5044983;28;20061;-67
2022/08/09 13:52:34;;;;;;;10.50;3.10;;;;;;;;;;5043948;28;20056;-66
2022/08/09 13:55:00;;;;;;;10.00;2.83;;;;;;;;;;5046189;28;20033;-67
2022/08/09 13:57:27;;;;;;;11.38;3.22;;;;;;;;;;5043100;28;20449;-69
2022/08/09 13:59:53;;;;;;;12.57;3.70;;;;;;;;;;5045661;28;20025;-69
2022/08/09 14:02:19;;;;;;;8.50;2.97;;;;;;;;;;5044650;28;20465;-70
2022/08/09 14:04:45;;;;;;;11.73;3.13;;;;;;;;;;5045717;28;20041;-69
2022/08/09 14:07:12;;;;;;;8.85;2.55;;;;;;;;;;5037174;28;20029;-69
2022/08/09 14:09:38;;;;;;;9.80;3.83;;;;;;;;;;5045067;28;20029;-69
2022/08/09 14:12:04;;;;;;;8.50;3.00;;;;;;;;;;5045464;28;20047;-69
2022/08/09 14:14:30;;;;;;;10.15;2.95;;;;;;;;;;5046844;28;20040;-68
2022/08/09 14:16:57;;;;;;;9.48;2.78;;;;;;;;;;5046074;28;20496;-69
2022/08/09 14:19:23;;;;;;;10.10;3.22;;;;;;;;;;5042246;28;20075;-67
2022/08/09 14:21:50;;;;;;;15.80;2.90;;;;;;;;;;5044183;28;20039;-67
2022/08/09 14:24:16;;;;;;;7.97;3.13;;;;;;;;;;5054074;28;20079;-67
2022/08/09 14:26:46;;;;;;;12.02;4.00;;;;;;;;;;5046856;28;20177;-67
2022/08/09 14:29:14;;;;;;;12.30;2.78;;;;;;;;;;5047529;28;20072;-67
2022/08/09 14:31:40;;;;;;;12.57;2.83;;;;;;;;;;5040375;28;20025;-67
2022/08/09 14:34:07;;;;;;;5.43;2.33;;;;;;;;;;5041586;28;20028;-67
2022/08/09 14:36:33;;;;;;;7.88;2.70;;;;;;;;;;5040861;28;20056;-67
2022/08/09 14:38:59;;;;;;;11.55;2.70;;;;;;;;;;5044662;28;20522;-67
2022/08/09 14:41:26;;;;;;;14.23;3.03;;;;;;;;;;5044433;28;20509;-67